sensor_id;sensor_type;location;lat;lon;timestamp;temperature;humidity
48666;DHT22;34452;50.796;4.994;2023-04-06T00:01:03;4.40;99.90
48666;DHT22;34452;50.796;4.994;2023-04-06T00:03:29;4.40;99.90
48666;DHT22;34452;50.796;4.994;2023-04-06T00:05:54;4.30;99.90
48666;DHT22;34452;50.796;4.994;2023-04-06T00:08:21;4.40;99.90
48666;DHT22;34452;50.796;4.994;2023-04-06T00:10:48;4.30;99.90
48666;DHT22;34452;50.796;4.994;2023-04-06T00:13:14;4.20;99.90
48666;DHT22;34452;50.796;4.994;2023-04-06T00:15:40;4.20;99.90
48666;DHT22;34452;50.796;4.994;2023-04-06T00:18:06;4.20;99.90
48666;DHT22;34452;50.796;4.994;2023-04-06T00:20:32;4.20;99.90
48666;DHT22;34452;50.796;4.994;2023-04-06T00:22:58;4.20;99.90
48666;DHT22;34452;50.796;4.994;2023-04-06T00:25:24;4.20;99.90
48666;DHT22;34452;50.796;4.994;2023-04-06T00:27:49;4.20;99.90
48666;DHT22;34452;50.796;4.994;2023-04-06T00:30:15;4.10;99.90
48666;DHT22;34452;50.796;4.994;2023-04-06T00:32:41;4.10;99.90
48666;DHT22;34452;50.796;4.994;2023-04-06T00:35:07;4.10;99.90
48666;DHT22;34452;50.796;4.994;2023-04-06T00:37:33;4.10;99.90
48666;DHT22;34452;50.796;4.994;2023-04-06T00:39:58;4.00;99.90
48666;DHT22;34452;50.796;4.994;2023-04-06T00:42:24;3.90;99.90
48666;DHT22;34452;50.796;4.994;2023-04-06T00:45:03;3.80;99.90
48666;DHT22;34452;50.796;4.994;2023-04-06T00:47:29;3.80;99.90
48666;DHT22;34452;50.796;4.994;2023-04-06T00:49:54;3.90;99.90
48666;DHT22;34452;50.796;4.994;2023-04-06T00:52:21;3.90;99.90
48666;DHT22;34452;50.796;4.994;2023-04-06T00:54:47;4.00;99.90
48666;DHT22;34452;50.796;4.994;2023-04-06T00:57:13;3.90;99.90
48666;DHT22;34452;50.796;4.994;2023-04-06T00:59:40;3.90;99.90
48666;DHT22;34452;50.796;4.994;2023-04-06T01:02:06;3.90;99.90
48666;DHT22;34452;50.796;4.994;2023-04-06T01:04:32;4.00;99.90
48666;DHT22;34452;50.796;4.994;2023-04-06T01:06:58;4.00;99.90
48666;DHT22;34452;50.796;4.994;2023-04-06T01:09:24;4.00;99.90
48666;DHT22;34452;50.796;4.994;2023-04-06T01:11:50;4.00;99.90
48666;DHT22;34452;50.796;4.994;2023-04-06T01:14:16;4.00;99.90
48666;DHT22;34452;50.796;4.994;2023-04-06T01:16:42;3.90;99.90
48666;DHT22;34452;50.796;4.994;2023-04-06T01:19:09;4.00;99.90
48666;DHT22;34452;50.796;4.994;2023-04-06T01:21:36;4.00;99.90
48666;DHT22;34452;50.796;4.994;2023-04-06T01:24:02;4.00;99.90
48666;DHT22;34452;50.796;4.994;2023-04-06T01:26:28;4.00;99.90
48666;DHT22;34452;50.796;4.994;2023-04-06T01:28:54;3.90;99.90
48666;DHT22;34452;50.796;4.994;2023-04-06T01:31:20;4.00;99.90
48666;DHT22;34452;50.796;4.994;2023-04-06T01:33:46;3.90;99.90
48666;DHT22;34452;50.796;4.994;2023-04-06T01:36:12;3.90;99.90
48666;DHT22;34452;50.796;4.994;2023-04-06T01:38:38;3.80;99.90
48666;DHT22;34452;50.796;4.994;2023-04-06T01:41:04;3.80;99.90
48666;DHT22;34452;50.796;4.994;2023-04-06T01:43:30;3.80;99.90
48666;DHT22;34452;50.796;4.994;2023-04-06T01:45:56;3.90;99.90
48666;DHT22;34452;50.796;4.994;2023-04-06T01:48:22;4.00;99.90
48666;DHT22;34452;50.796;4.994;2023-04-06T01:50:48;4.00;99.90
48666;DHT22;34452;50.796;4.994;2023-04-06T01:53:14;4.10;99.90
48666;DHT22;34452;50.796;4.994;2023-04-06T01:55:41;4.20;99.90
48666;DHT22;34452;50.796;4.994;2023-04-06T01:58:07;4.20;99.90
48666;DHT22;34452;50.796;4.994;2023-04-06T02:00:33;4.10;99.90
48666;DHT22;34452;50.796;4.994;2023-04-06T02:02:58;4.00;99.90
48666;DHT22;34452;50.796;4.994;2023-04-06T02:05:25;3.90;99.90
48666;DHT22;34452;50.796;4.994;2023-04-06T02:07:51;3.90;99.90
48666;DHT22;34452;50.796;4.994;2023-04-06T02:10:17;4.00;99.90
48666;DHT22;34452;50.796;4.994;2023-04-06T02:12:43;4.00;99.90
48666;DHT22;34452;50.796;4.994;2023-04-06T02:15:09;4.00;99.90
48666;DHT22;34452;50.796;4.994;2023-04-06T02:17:35;4.00;99.90
48666;DHT22;34452;50.796;4.994;2023-04-06T02:20:01;4.00;99.90
48666;DHT22;34452;50.796;4.994;2023-04-06T02:22:26;4.00;99.90
48666;DHT22;34452;50.796;4.994;2023-04-06T02:24:52;4.10;99.90
48666;DHT22;34452;50.796;4.994;2023-04-06T02:27:18;4.10;99.90
48666;DHT22;34452;50.796;4.994;2023-04-06T02:29:43;4.10;99.90
48666;DHT22;34452;50.796;4.994;2023-04-06T02:32:09;4.00;99.90
48666;DHT22;34452;50.796;4.994;2023-04-06T02:34:35;4.00;99.90
48666;DHT22;34452;50.796;4.994;2023-04-06T02:37:01;4.00;99.90
48666;DHT22;34452;50.796;4.994;2023-04-06T02:39:27;4.10;99.90
48666;DHT22;34452;50.796;4.994;2023-04-06T02:41:52;4.10;99.90
48666;DHT22;34452;50.796;4.994;2023-04-06T02:44:18;4.10;99.90
48666;DHT22;34452;50.796;4.994;2023-04-06T02:46:44;4.10;99.90
48666;DHT22;34452;50.796;4.994;2023-04-06T02:49:10;4.10;99.90
48666;DHT22;34452;50.796;4.994;2023-04-06T02:51:35;4.10;99.90
48666;DHT22;34452;50.796;4.994;2023-04-06T02:54:01;4.00;99.90
48666;DHT22;34452;50.796;4.994;2023-04-06T02:56:27;4.10;99.90
48666;DHT22;34452;50.796;4.994;2023-04-06T02:58:53;4.10;99.90
48666;DHT22;34452;50.796;4.994;2023-04-06T03:01:18;4.20;99.90
48666;DHT22;34452;50.796;4.994;2023-04-06T03:03:44;4.20;99.90
48666;DHT22;34452;50.796;4.994;2023-04-06T03:06:10;4.20;99.90
48666;DHT22;34452;50.796;4.994;2023-04-06T03:08:36;4.30;99.90
48666;DHT22;34452;50.796;4.994;2023-04-06T03:11:02;4.40;99.90
48666;DHT22;34452;50.796;4.994;2023-04-06T03:13:28;4.50;99.90
48666;DHT22;34452;50.796;4.994;2023-04-06T03:15:53;4.50;99.90
48666;DHT22;34452;50.796;4.994;2023-04-06T03:18:22;4.50;99.90
48666;DHT22;34452;50.796;4.994;2023-04-06T03:20:48;4.50;99.90
48666;DHT22;34452;50.796;4.994;2023-04-06T03:23:14;4.50;99.90
48666;DHT22;34452;50.796;4.994;2023-04-06T03:25:40;4.50;99.90
48666;DHT22;34452;50.796;4.994;2023-04-06T03:28:06;4.50;99.90
48666;DHT22;34452;50.796;4.994;2023-04-06T03:30:31;4.50;99.90
48666;DHT22;34452;50.796;4.994;2023-04-06T03:32:57;4.60;99.90
48666;DHT22;34452;50.796;4.994;2023-04-06T03:35:23;4.60;99.90
48666;DHT22;34452;50.796;4.994;2023-04-06T03:37:49;4.60;99.90
48666;DHT22;34452;50.796;4.994;2023-04-06T03:40:15;4.60;99.90
48666;DHT22;34452;50.796;4.994;2023-04-06T03:42:41;4.60;99.90
48666;DHT22;34452;50.796;4.994;2023-04-06T03:45:07;4.70;99.90
48666;DHT22;34452;50.796;4.994;2023-04-06T03:47:33;4.70;99.90
48666;DHT22;34452;50.796;4.994;2023-04-06T03:49:59;4.70;99.90
48666;DHT22;34452;50.796;4.994;2023-04-06T03:52:25;4.70;99.90
48666;DHT22;34452;50.796;4.994;2023-04-06T03:54:51;4.70;99.90
48666;DHT22;34452;50.796;4.994;2023-04-06T03:57:17;4.80;99.90
48666;DHT22;34452;50.796;4.994;2023-04-06T03:59:43;4.80;99.90
48666;DHT22;34452;50.796;4.994;2023-04-06T04:02:09;4.80;99.90
48666;DHT22;34452;50.796;4.994;2023-04-06T04:04:35;4.80;99.90
48666;DHT22;34452;50.796;4.994;2023-04-06T04:07:00;4.80;99.90
48666;DHT22;34452;50.796;4.994;2023-04-06T04:09:26;4.80;99.90
48666;DHT22;34452;50.796;4.994;2023-04-06T04:11:52;4.90;99.90
48666;DHT22;34452;50.796;4.994;2023-04-06T04:14:17;4.90;99.90
48666;DHT22;34452;50.796;4.994;2023-04-06T04:16:43;4.80;99.90
48666;DHT22;34452;50.796;4.994;2023-04-06T04:19:09;4.80;99.90
48666;DHT22;34452;50.796;4.994;2023-04-06T04:21:42;4.80;99.90
48666;DHT22;34452;50.796;4.994;2023-04-06T04:24:09;4.80;99.90
48666;DHT22;34452;50.796;4.994;2023-04-06T04:26:35;4.80;99.90
48666;DHT22;34452;50.796;4.994;2023-04-06T04:29:01;4.90;99.90
48666;DHT22;34452;50.796;4.994;2023-04-06T04:31:27;4.90;99.90
48666;DHT22;34452;50.796;4.994;2023-04-06T04:33:52;4.90;99.90
48666;DHT22;34452;50.796;4.994;2023-04-06T04:36:18;4.90;99.90
48666;DHT22;34452;50.796;4.994;2023-04-06T04:38:44;4.90;99.90
48666;DHT22;34452;50.796;4.994;2023-04-06T04:41:10;4.90;99.90
48666;DHT22;34452;50.796;4.994;2023-04-06T04:43:35;5.00;99.90
48666;DHT22;34452;50.796;4.994;2023-04-06T04:46:01;5.00;99.90
48666;DHT22;34452;50.796;4.994;2023-04-06T04:48:27;5.00;99.90
48666;DHT22;34452;50.796;4.994;2023-04-06T04:50:53;5.00;99.90
48666;DHT22;34452;50.796;4.994;2023-04-06T04:53:20;5.10;99.90
48666;DHT22;34452;50.796;4.994;2023-04-06T04:55:46;5.10;99.90
48666;DHT22;34452;50.796;4.994;2023-04-06T04:58:12;5.10;99.90
48666;DHT22;34452;50.796;4.994;2023-04-06T05:00:42;5.10;99.90
48666;DHT22;34452;50.796;4.994;2023-04-06T05:03:08;5.20;99.90
48666;DHT22;34452;50.796;4.994;2023-04-06T05:05:35;5.20;99.90
48666;DHT22;34452;50.796;4.994;2023-04-06T05:08:01;5.20;99.90
48666;DHT22;34452;50.796;4.994;2023-04-06T05:10:27;5.20;99.90
48666;DHT22;34452;50.796;4.994;2023-04-06T05:12:53;5.20;99.90
48666;DHT22;34452;50.796;4.994;2023-04-06T05:15:18;5.20;99.90
48666;DHT22;34452;50.796;4.994;2023-04-06T05:17:45;5.20;99.90
48666;DHT22;34452;50.796;4.994;2023-04-06T05:20:11;5.20;99.90
48666;DHT22;34452;50.796;4.994;2023-04-06T05:22:36;5.30;99.90
48666;DHT22;34452;50.796;4.994;2023-04-06T05:25:03;5.20;99.90
48666;DHT22;34452;50.796;4.994;2023-04-06T05:27:29;5.20;99.90
48666;DHT22;34452;50.796;4.994;2023-04-06T05:29:54;5.20;99.90
48666;DHT22;34452;50.796;4.994;2023-04-06T05:32:20;5.20;99.90
48666;DHT22;34452;50.796;4.994;2023-04-06T05:34:50;5.20;99.90
48666;DHT22;34452;50.796;4.994;2023-04-06T05:37:16;5.30;99.90
48666;DHT22;34452;50.796;4.994;2023-04-06T05:39:42;5.20;99.90
48666;DHT22;34452;50.796;4.994;2023-04-06T05:42:07;5.30;99.90
48666;DHT22;34452;50.796;4.994;2023-04-06T05:44:33;5.30;99.90
48666;DHT22;34452;50.796;4.994;2023-04-06T05:46:59;5.40;99.90
48666;DHT22;34452;50.796;4.994;2023-04-06T05:49:25;5.40;99.90
48666;DHT22;34452;50.796;4.994;2023-04-06T05:51:50;5.30;99.90
48666;DHT22;34452;50.796;4.994;2023-04-06T05:54:16;5.40;99.90
48666;DHT22;34452;50.796;4.994;2023-04-06T05:56:42;5.40;99.90
48666;DHT22;34452;50.796;4.994;2023-04-06T05:59:08;5.40;99.90
48666;DHT22;34452;50.796;4.994;2023-04-06T06:01:33;5.50;99.90
48666;DHT22;34452;50.796;4.994;2023-04-06T06:04:00;5.50;99.90
48666;DHT22;34452;50.796;4.994;2023-04-06T06:06:27;5.60;99.90
48666;DHT22;34452;50.796;4.994;2023-04-06T06:08:54;5.60;99.90
48666;DHT22;34452;50.796;4.994;2023-04-06T06:11:21;5.60;99.90
48666;DHT22;34452;50.796;4.994;2023-04-06T06:13:46;5.70;99.90
48666;DHT22;34452;50.796;4.994;2023-04-06T06:16:12;5.70;99.90
48666;DHT22;34452;50.796;4.994;2023-04-06T06:18:38;5.80;99.90
48666;DHT22;34452;50.796;4.994;2023-04-06T06:21:04;5.90;99.90
48666;DHT22;34452;50.796;4.994;2023-04-06T06:23:29;5.90;99.90
48666;DHT22;34452;50.796;4.994;2023-04-06T06:25:55;6.00;99.90
48666;DHT22;34452;50.796;4.994;2023-04-06T06:28:23;6.00;99.90
48666;DHT22;34452;50.796;4.994;2023-04-06T06:30:50;6.20;99.90
48666;DHT22;34452;50.796;4.994;2023-04-06T06:33:16;6.20;99.90
48666;DHT22;34452;50.796;4.994;2023-04-06T06:35:42;6.30;99.90
48666;DHT22;34452;50.796;4.994;2023-04-06T06:38:08;6.40;99.90
48666;DHT22;34452;50.796;4.994;2023-04-06T06:40:34;6.50;99.90
48666;DHT22;34452;50.796;4.994;2023-04-06T06:43:00;6.50;99.90
48666;DHT22;34452;50.796;4.994;2023-04-06T06:45:25;6.60;99.90
48666;DHT22;34452;50.796;4.994;2023-04-06T06:47:51;6.60;99.90
48666;DHT22;34452;50.796;4.994;2023-04-06T06:50:17;6.60;99.90
48666;DHT22;34452;50.796;4.994;2023-04-06T06:52:43;6.70;99.90
48666;DHT22;34452;50.796;4.994;2023-04-06T06:55:10;6.70;99.90
48666;DHT22;34452;50.796;4.994;2023-04-06T06:57:36;6.80;99.90
48666;DHT22;34452;50.796;4.994;2023-04-06T07:00:02;6.80;99.90
48666;DHT22;34452;50.796;4.994;2023-04-06T07:02:30;6.90;99.90
48666;DHT22;34452;50.796;4.994;2023-04-06T07:04:56;6.90;99.90
48666;DHT22;34452;50.796;4.994;2023-04-06T07:07:22;7.00;99.90
48666;DHT22;34452;50.796;4.994;2023-04-06T07:09:48;7.10;99.90
48666;DHT22;34452;50.796;4.994;2023-04-06T07:12:13;7.10;99.90
48666;DHT22;34452;50.796;4.994;2023-04-06T07:14:41;7.20;99.90
48666;DHT22;34452;50.796;4.994;2023-04-06T07:17:07;7.20;99.90
48666;DHT22;34452;50.796;4.994;2023-04-06T07:19:32;7.30;99.90
48666;DHT22;34452;50.796;4.994;2023-04-06T07:21:58;7.30;99.90
48666;DHT22;34452;50.796;4.994;2023-04-06T07:24:24;7.30;99.90
48666;DHT22;34452;50.796;4.994;2023-04-06T07:26:51;7.20;99.90
48666;DHT22;34452;50.796;4.994;2023-04-06T07:29:17;7.30;99.90
48666;DHT22;34452;50.796;4.994;2023-04-06T07:31:43;7.30;99.90
48666;DHT22;34452;50.796;4.994;2023-04-06T07:34:09;7.30;99.90
48666;DHT22;34452;50.796;4.994;2023-04-06T07:36:35;7.40;99.90
48666;DHT22;34452;50.796;4.994;2023-04-06T07:39:01;7.40;99.90
48666;DHT22;34452;50.796;4.994;2023-04-06T07:41:26;7.50;99.90
48666;DHT22;34452;50.796;4.994;2023-04-06T07:43:52;7.60;99.90
48666;DHT22;34452;50.796;4.994;2023-04-06T07:46:18;7.60;99.90
48666;DHT22;34452;50.796;4.994;2023-04-06T07:48:43;7.70;99.90
48666;DHT22;34452;50.796;4.994;2023-04-06T07:51:09;7.70;99.90
48666;DHT22;34452;50.796;4.994;2023-04-06T07:53:39;7.80;99.90
48666;DHT22;34452;50.796;4.994;2023-04-06T07:56:05;7.80;99.90
48666;DHT22;34452;50.796;4.994;2023-04-06T07:58:31;7.80;99.90
48666;DHT22;34452;50.796;4.994;2023-04-06T08:00:57;7.80;99.90
48666;DHT22;34452;50.796;4.994;2023-04-06T08:03:23;7.80;99.90
48666;DHT22;34452;50.796;4.994;2023-04-06T08:05:51;7.90;99.90
48666;DHT22;34452;50.796;4.994;2023-04-06T08:08:18;7.90;99.90
48666;DHT22;34452;50.796;4.994;2023-04-06T08:10:44;7.90;99.90
48666;DHT22;34452;50.796;4.994;2023-04-06T08:13:10;7.90;99.90
48666;DHT22;34452;50.796;4.994;2023-04-06T08:15:36;8.00;99.90
48666;DHT22;34452;50.796;4.994;2023-04-06T08:18:02;8.00;99.90
48666;DHT22;34452;50.796;4.994;2023-04-06T08:20:28;8.00;99.90
48666;DHT22;34452;50.796;4.994;2023-04-06T08:22:53;8.00;99.90
48666;DHT22;34452;50.796;4.994;2023-04-06T08:25:19;8.10;99.90
48666;DHT22;34452;50.796;4.994;2023-04-06T08:27:45;8.10;99.90
48666;DHT22;34452;50.796;4.994;2023-04-06T08:30:11;8.20;99.90
48666;DHT22;34452;50.796;4.994;2023-04-06T08:32:37;8.20;99.90
48666;DHT22;34452;50.796;4.994;2023-04-06T08:35:02;8.20;99.90
48666;DHT22;34452;50.796;4.994;2023-04-06T08:37:28;8.30;99.90
48666;DHT22;34452;50.796;4.994;2023-04-06T08:39:54;8.30;99.90
48666;DHT22;34452;50.796;4.994;2023-04-06T08:42:21;8.30;99.90
48666;DHT22;34452;50.796;4.994;2023-04-06T08:44:48;8.40;99.90
48666;DHT22;34452;50.796;4.994;2023-04-06T08:47:15;8.40;99.90
48666;DHT22;34452;50.796;4.994;2023-04-06T08:49:42;8.40;99.90
48666;DHT22;34452;50.796;4.994;2023-04-06T08:52:10;8.40;99.90
48666;DHT22;34452;50.796;4.994;2023-04-06T08:54:37;8.40;99.90
48666;DHT22;34452;50.796;4.994;2023-04-06T08:57:02;8.40;99.90
48666;DHT22;34452;50.796;4.994;2023-04-06T08:59:28;8.40;99.90
48666;DHT22;34452;50.796;4.994;2023-04-06T09:01:55;8.40;99.90
48666;DHT22;34452;50.796;4.994;2023-04-06T09:04:21;8.40;99.90
48666;DHT22;34452;50.796;4.994;2023-04-06T09:06:47;8.40;99.90
48666;DHT22;34452;50.796;4.994;2023-04-06T09:09:13;8.40;99.90
48666;DHT22;34452;50.796;4.994;2023-04-06T09:11:57;8.40;99.90
48666;DHT22;34452;50.796;4.994;2023-04-06T09:14:42;8.30;99.90
48666;DHT22;34452;50.796;4.994;2023-04-06T09:17:08;8.30;99.90
48666;DHT22;34452;50.796;4.994;2023-04-06T09:19:34;8.30;99.90
48666;DHT22;34452;50.796;4.994;2023-04-06T09:22:10;8.30;99.90
48666;DHT22;34452;50.796;4.994;2023-04-06T09:24:52;8.30;99.90
48666;DHT22;34452;50.796;4.994;2023-04-06T09:27:29;8.30;99.90
48666;DHT22;34452;50.796;4.994;2023-04-06T09:32:59;8.30;99.90
48666;DHT22;34452;50.796;4.994;2023-04-06T09:35:25;8.40;99.90
48666;DHT22;34452;50.796;4.994;2023-04-06T09:37:52;8.40;99.90
48666;DHT22;34452;50.796;4.994;2023-04-06T09:40:19;8.30;99.90
48666;DHT22;34452;50.796;4.994;2023-04-06T09:42:46;8.40;99.90
48666;DHT22;34452;50.796;4.994;2023-04-06T09:45:12;8.40;99.90
48666;DHT22;34452;50.796;4.994;2023-04-06T09:47:40;8.50;99.90
48666;DHT22;34452;50.796;4.994;2023-04-06T09:50:10;8.40;99.90
48666;DHT22;34452;50.796;4.994;2023-04-06T09:52:40;8.50;99.90
48666;DHT22;34452;50.796;4.994;2023-04-06T09:55:08;8.50;99.90
48666;DHT22;34452;50.796;4.994;2023-04-06T10:00:21;8.50;99.90
48666;DHT22;34452;50.796;4.994;2023-04-06T10:05:56;8.50;99.90
48666;DHT22;34452;50.796;4.994;2023-04-06T10:08:26;8.60;99.90
48666;DHT22;34452;50.796;4.994;2023-04-06T10:10:54;8.60;99.90
48666;DHT22;34452;50.796;4.994;2023-04-06T10:13:20;8.60;99.90
48666;DHT22;34452;50.796;4.994;2023-04-06T10:15:47;8.50;99.90
48666;DHT22;34452;50.796;4.994;2023-04-06T10:18:14;8.50;99.90
48666;DHT22;34452;50.796;4.994;2023-04-06T10:20:47;8.50;99.90
48666;DHT22;34452;50.796;4.994;2023-04-06T10:26:03;8.60;99.90
48666;DHT22;34452;50.796;4.994;2023-04-06T10:28:33;8.60;99.90
48666;DHT22;34452;50.796;4.994;2023-04-06T10:31:01;8.70;99.90
48666;DHT22;34452;50.796;4.994;2023-04-06T10:33:27;8.80;99.90
48666;DHT22;34452;50.796;4.994;2023-04-06T10:35:53;8.80;99.90
48666;DHT22;34452;50.796;4.994;2023-04-06T10:38:20;8.90;99.90
48666;DHT22;34452;50.796;4.994;2023-04-06T10:40:47;8.90;99.90
48666;DHT22;34452;50.796;4.994;2023-04-06T10:43:17;8.80;99.90
48666;DHT22;34452;50.796;4.994;2023-04-06T10:45:44;8.70;99.90
48666;DHT22;34452;50.796;4.994;2023-04-06T10:48:35;8.70;99.90
48666;DHT22;34452;50.796;4.994;2023-04-06T10:51:01;8.80;99.90
48666;DHT22;34452;50.796;4.994;2023-04-06T10:53:28;8.80;99.90
48666;DHT22;34452;50.796;4.994;2023-04-06T10:55:56;8.70;99.90
48666;DHT22;34452;50.796;4.994;2023-04-06T10:58:27;8.80;99.90
48666;DHT22;34452;50.796;4.994;2023-04-06T11:00:54;8.80;99.90
48666;DHT22;34452;50.796;4.994;2023-04-06T11:03:20;8.80;99.90
48666;DHT22;34452;50.796;4.994;2023-04-06T11:05:48;8.70;99.90
48666;DHT22;34452;50.796;4.994;2023-04-06T11:08:31;8.70;99.90
48666;DHT22;34452;50.796;4.994;2023-04-06T11:11:09;8.70;99.90
48666;DHT22;34452;50.796;4.994;2023-04-06T11:13:54;8.70;99.90
48666;DHT22;34452;50.796;4.994;2023-04-06T11:16:24;8.80;99.90
48666;DHT22;34452;50.796;4.994;2023-04-06T11:18:54;8.80;99.90
48666;DHT22;34452;50.796;4.994;2023-04-06T11:21:41;8.80;99.90
48666;DHT22;34452;50.796;4.994;2023-04-06T11:24:22;8.70;99.90
48666;DHT22;34452;50.796;4.994;2023-04-06T11:27:00;8.70;99.90
48666;DHT22;34452;50.796;4.994;2023-04-06T11:29:28;8.80;99.90
48666;DHT22;34452;50.796;4.994;2023-04-06T11:32:00;8.90;99.90
48666;DHT22;34452;50.796;4.994;2023-04-06T11:34:28;8.90;99.90
48666;DHT22;34452;50.796;4.994;2023-04-06T11:36:57;8.90;99.90
48666;DHT22;34452;50.796;4.994;2023-04-06T11:39:24;8.90;99.90
48666;DHT22;34452;50.796;4.994;2023-04-06T11:41:53;8.90;99.90
48666;DHT22;34452;50.796;4.994;2023-04-06T11:44:39;8.90;99.90
48666;DHT22;34452;50.796;4.994;2023-04-06T11:47:08;9.00;99.90
48666;DHT22;34452;50.796;4.994;2023-04-06T11:49:37;9.00;99.90
48666;DHT22;34452;50.796;4.994;2023-04-06T11:52:14;9.10;99.90
48666;DHT22;34452;50.796;4.994;2023-04-06T11:54:40;9.00;99.90
48666;DHT22;34452;50.796;4.994;2023-04-06T11:57:08;8.80;99.90
48666;DHT22;34452;50.796;4.994;2023-04-06T11:59:34;8.70;99.90
48666;DHT22;34452;50.796;4.994;2023-04-06T12:02:01;8.70;99.90
48666;DHT22;34452;50.796;4.994;2023-04-06T12:04:27;8.70;99.90
48666;DHT22;34452;50.796;4.994;2023-04-06T12:06:53;8.70;99.90
48666;DHT22;34452;50.796;4.994;2023-04-06T12:09:19;8.70;99.90
48666;DHT22;34452;50.796;4.994;2023-04-06T12:11:45;8.60;99.90
48666;DHT22;34452;50.796;4.994;2023-04-06T12:14:11;8.60;99.90
48666;DHT22;34452;50.796;4.994;2023-04-06T12:16:37;8.60;99.90
48666;DHT22;34452;50.796;4.994;2023-04-06T12:19:03;8.60;99.90
48666;DHT22;34452;50.796;4.994;2023-04-06T12:21:29;8.70;99.90
48666;DHT22;34452;50.796;4.994;2023-04-06T12:23:56;8.60;99.90
48666;DHT22;34452;50.796;4.994;2023-04-06T12:26:22;8.70;99.90
48666;DHT22;34452;50.796;4.994;2023-04-06T12:28:48;8.80;99.90
48666;DHT22;34452;50.796;4.994;2023-04-06T12:31:15;8.80;99.90
48666;DHT22;34452;50.796;4.994;2023-04-06T12:33:41;8.80;99.90
48666;DHT22;34452;50.796;4.994;2023-04-06T12:36:12;8.70;99.90
48666;DHT22;34452;50.796;4.994;2023-04-06T12:38:38;8.70;99.90
48666;DHT22;34452;50.796;4.994;2023-04-06T12:41:06;8.70;99.90
48666;DHT22;34452;50.796;4.994;2023-04-06T12:43:32;8.80;99.90
48666;DHT22;34452;50.796;4.994;2023-04-06T12:45:57;8.90;99.90
48666;DHT22;34452;50.796;4.994;2023-04-06T12:48:25;8.90;99.90
48666;DHT22;34452;50.796;4.994;2023-04-06T12:51:06;8.90;99.90
48666;DHT22;34452;50.796;4.994;2023-04-06T12:53:33;8.90;99.90
48666;DHT22;34452;50.796;4.994;2023-04-06T12:56:00;9.00;99.90
48666;DHT22;34452;50.796;4.994;2023-04-06T12:58:38;9.00;99.90
48666;DHT22;34452;50.796;4.994;2023-04-06T13:01:07;9.10;99.90
48666;DHT22;34452;50.796;4.994;2023-04-06T13:03:33;9.20;99.90
48666;DHT22;34452;50.796;4.994;2023-04-06T13:06:00;9.30;99.90
48666;DHT22;34452;50.796;4.994;2023-04-06T13:08:26;9.20;99.90
48666;DHT22;34452;50.796;4.994;2023-04-06T13:10:53;9.20;99.90
48666;DHT22;34452;50.796;4.994;2023-04-06T13:13:23;9.20;99.90
48666;DHT22;34452;50.796;4.994;2023-04-06T13:15:50;9.30;99.90
48666;DHT22;34452;50.796;4.994;2023-04-06T13:18:16;9.20;99.90
48666;DHT22;34452;50.796;4.994;2023-04-06T13:20:42;9.20;99.90
48666;DHT22;34452;50.796;4.994;2023-04-06T13:23:08;9.20;99.90
48666;DHT22;34452;50.796;4.994;2023-04-06T13:25:34;9.20;99.90
48666;DHT22;34452;50.796;4.994;2023-04-06T13:28:00;9.30;99.90
48666;DHT22;34452;50.796;4.994;2023-04-06T13:30:26;9.20;99.90
48666;DHT22;34452;50.796;4.994;2023-04-06T13:32:52;9.30;99.90
48666;DHT22;34452;50.796;4.994;2023-04-06T13:35:18;9.20;99.90
48666;DHT22;34452;50.796;4.994;2023-04-06T13:37:44;9.30;99.90
48666;DHT22;34452;50.796;4.994;2023-04-06T13:40:10;9.30;99.90
48666;DHT22;34452;50.796;4.994;2023-04-06T13:42:37;9.40;99.90
48666;DHT22;34452;50.796;4.994;2023-04-06T13:45:05;9.50;99.90
48666;DHT22;34452;50.796;4.994;2023-04-06T13:47:31;9.30;99.90
48666;DHT22;34452;50.796;4.994;2023-04-06T13:49:57;9.30;99.90
48666;DHT22;34452;50.796;4.994;2023-04-06T13:52:23;9.20;99.90
48666;DHT22;34452;50.796;4.994;2023-04-06T13:54:49;9.20;99.90
48666;DHT22;34452;50.796;4.994;2023-04-06T13:57:15;9.20;99.90
48666;DHT22;34452;50.796;4.994;2023-04-06T13:59:41;9.10;99.90
48666;DHT22;34452;50.796;4.994;2023-04-06T14:02:09;9.00;99.90
48666;DHT22;34452;50.796;4.994;2023-04-06T14:04:35;8.90;99.90
48666;DHT22;34452;50.796;4.994;2023-04-06T14:07:01;8.90;99.90
48666;DHT22;34452;50.796;4.994;2023-04-06T14:09:28;8.90;99.90
48666;DHT22;34452;50.796;4.994;2023-04-06T14:11:55;8.90;99.90
48666;DHT22;34452;50.796;4.994;2023-04-06T14:14:21;8.80;99.90
48666;DHT22;34452;50.796;4.994;2023-04-06T14:16:47;8.80;99.90
48666;DHT22;34452;50.796;4.994;2023-04-06T14:19:16;8.90;99.90
48666;DHT22;34452;50.796;4.994;2023-04-06T14:21:44;9.00;99.90
48666;DHT22;34452;50.796;4.994;2023-04-06T14:24:11;9.00;99.90
48666;DHT22;34452;50.796;4.994;2023-04-06T14:26:38;9.00;99.90
48666;DHT22;34452;50.796;4.994;2023-04-06T14:29:04;9.10;99.90
48666;DHT22;34452;50.796;4.994;2023-04-06T14:31:31;9.10;99.90
48666;DHT22;34452;50.796;4.994;2023-04-06T14:33:57;9.10;99.90
48666;DHT22;34452;50.796;4.994;2023-04-06T14:36:23;9.10;99.90
48666;DHT22;34452;50.796;4.994;2023-04-06T14:38:52;9.20;99.90
48666;DHT22;34452;50.796;4.994;2023-04-06T14:41:21;9.20;99.90
48666;DHT22;34452;50.796;4.994;2023-04-06T14:43:48;9.20;99.90
48666;DHT22;34452;50.796;4.994;2023-04-06T14:46:14;9.20;99.90
48666;DHT22;34452;50.796;4.994;2023-04-06T14:48:41;9.20;99.90
48666;DHT22;34452;50.796;4.994;2023-04-06T14:51:07;9.20;99.90
48666;DHT22;34452;50.796;4.994;2023-04-06T14:53:33;9.20;99.90
48666;DHT22;34452;50.796;4.994;2023-04-06T14:55:58;9.20;99.90
48666;DHT22;34452;50.796;4.994;2023-04-06T14:58:25;9.20;99.90
48666;DHT22;34452;50.796;4.994;2023-04-06T15:01:02;9.20;99.90
48666;DHT22;34452;50.796;4.994;2023-04-06T15:03:28;9.20;99.90
48666;DHT22;34452;50.796;4.994;2023-04-06T15:05:55;9.10;99.90
48666;DHT22;34452;50.796;4.994;2023-04-06T15:08:22;9.20;99.90
48666;DHT22;34452;50.796;4.994;2023-04-06T15:10:49;9.10;99.90
48666;DHT22;34452;50.796;4.994;2023-04-06T15:13:15;9.10;99.90
48666;DHT22;34452;50.796;4.994;2023-04-06T15:15:42;9.10;99.90
48666;DHT22;34452;50.796;4.994;2023-04-06T15:18:09;9.00;99.90
48666;DHT22;34452;50.796;4.994;2023-04-06T15:20:34;9.00;99.90
48666;DHT22;34452;50.796;4.994;2023-04-06T15:23:02;9.00;99.90
48666;DHT22;34452;50.796;4.994;2023-04-06T15:25:29;9.00;99.90
48666;DHT22;34452;50.796;4.994;2023-04-06T15:27:55;9.00;99.90
48666;DHT22;34452;50.796;4.994;2023-04-06T15:30:20;9.00;99.90
48666;DHT22;34452;50.796;4.994;2023-04-06T15:33:06;9.00;99.90
48666;DHT22;34452;50.796;4.994;2023-04-06T15:35:33;9.00;99.90
48666;DHT22;34452;50.796;4.994;2023-04-06T15:38:04;9.10;99.90
48666;DHT22;34452;50.796;4.994;2023-04-06T15:40:30;9.10;99.90
48666;DHT22;34452;50.796;4.994;2023-04-06T15:42:56;9.20;99.90
48666;DHT22;34452;50.796;4.994;2023-04-06T15:45:21;9.30;99.90
48666;DHT22;34452;50.796;4.994;2023-04-06T15:47:47;9.30;99.90
48666;DHT22;34452;50.796;4.994;2023-04-06T15:50:13;9.40;99.90
48666;DHT22;34452;50.796;4.994;2023-04-06T15:52:39;9.40;99.90
48666;DHT22;34452;50.796;4.994;2023-04-06T15:55:07;9.40;99.90